Atwell, West Virginia
Current Conditions -  °F | °C
As of 1:15 AM on Wednesday 22 Oct 2014 (Local Time) from KJFZ Reporting Station
Heavy Rain Heavy Rain  
Wind Chill: 42°   Ceiling: 300
Heat Index: 45°   Visibility: 4mi
Dew Point: 43°   Wind: 5mph
Humidity: 93%   Direction: 330°NNW
Pressure: 30.06"   Gusts: NA
Location:  37.3433°N, 81.7826°W
Report Text: KJFZ 220515Z AUTO 33004KT 4SM +RA BKN003 OVC008 07/06 A3006 RMK AO2 P0001 T00710061
Loading
Personal Weather Stations






























Interactive Weather Map New forecast layout! Learn more

10-Day Weather Forecast

Advertisements
Track Severe Weather on mobile